sensor_id;sensor_type;location;lat;lon;timestamp;P1;durP1;ratioP1;P2;durP2;ratioP2
41643;SDS011;44236;48.098;11.582;2023-04-09T00:01:40;3.35;;;1.80;;
41643;SDS011;44236;48.098;11.582;2023-04-09T00:04:06;2.97;;;1.80;;
41643;SDS011;44236;48.098;11.582;2023-04-09T00:06:31;2.60;;;1.65;;
41643;SDS011;44236;48.098;11.582;2023-04-09T00:08:57;2.95;;;1.67;;
41643;SDS011;44236;48.098;11.582;2023-04-09T00:11:22;3.20;;;2.00;;
41643;SDS011;44236;48.098;11.582;2023-04-09T00:13:48;3.05;;;1.65;;
41643;SDS011;44236;48.098;11.582;2023-04-09T00:16:14;2.83;;;1.70;;
41643;SDS011;44236;48.098;11.582;2023-04-09T00:18:39;2.75;;;1.70;;
41643;SDS011;44236;48.098;11.582;2023-04-09T00:21:05;2.88;;;1.65;;
41643;SDS011;44236;48.098;11.582;2023-04-09T00:23:32;2.80;;;1.70;;
41643;SDS011;44236;48.098;11.582;2023-04-09T00:25:59;2.55;;;1.55;;
41643;SDS011;44236;48.098;11.582;2023-04-09T00:28:25;3.42;;;1.88;;
41643;SDS011;44236;48.098;11.582;2023-04-09T00:30:50;3.67;;;1.70;;
41643;SDS011;44236;48.098;11.582;2023-04-09T00:33:16;2.60;;;1.60;;
41643;SDS011;44236;48.098;11.582;2023-04-09T00:35:42;3.63;;;1.70;;
41643;SDS011;44236;48.098;11.582;2023-04-09T00:38:07;1.73;;;1.20;;
41643;SDS011;44236;48.098;11.582;2023-04-09T00:40:33;2.75;;;1.75;;
41643;SDS011;44236;48.098;11.582;2023-04-09T00:42:59;1.98;;;1.35;;
41643;SDS011;44236;48.098;11.582;2023-04-09T00:45:25;3.10;;;1.83;;
41643;SDS011;44236;48.098;11.582;2023-04-09T00:47:50;3.20;;;1.75;;
41643;SDS011;44236;48.098;11.582;2023-04-09T00:50:16;2.47;;;1.35;;
41643;SDS011;44236;48.098;11.582;2023-04-09T00:52:41;2.95;;;1.80;;
41643;SDS011;44236;48.098;11.582;2023-04-09T00:55:07;2.45;;;1.70;;
41643;SDS011;44236;48.098;11.582;2023-04-09T00:57:34;2.28;;;1.50;;
41643;SDS011;44236;48.098;11.582;2023-04-09T00:59:59;3.30;;;1.92;;
41643;SDS011;44236;48.098;11.582;2023-04-09T01:02:25;2.28;;;1.42;;
41643;SDS011;44236;48.098;11.582;2023-04-09T01:04:51;2.63;;;1.50;;
41643;SDS011;44236;48.098;11.582;2023-04-09T01:10:23;2.58;;;1.40;;
41643;SDS011;44236;48.098;11.582;2023-04-09T01:15:47;2.42;;;1.65;;
41643;SDS011;44236;48.098;11.582;2023-04-09T01:18:22;2.25;;;1.30;;
41643;SDS011;44236;48.098;11.582;2023-04-09T01:21:03;2.40;;;1.45;;
41643;SDS011;44236;48.098;11.582;2023-04-09T01:23:57;3.15;;;1.90;;
41643;SDS011;44236;48.098;11.582;2023-04-09T01:29:19;2.55;;;1.52;;
41643;SDS011;44236;48.098;11.582;2023-04-09T01:31:46;2.42;;;1.38;;
41643;SDS011;44236;48.098;11.582;2023-04-09T01:34:13;2.75;;;1.30;;
41643;SDS011;44236;48.098;11.582;2023-04-09T01:36:40;3.65;;;1.70;;
41643;SDS011;44236;48.098;11.582;2023-04-09T01:39:07;2.47;;;1.50;;
41643;SDS011;44236;48.098;11.582;2023-04-09T01:41:33;2.83;;;1.80;;
41643;SDS011;44236;48.098;11.582;2023-04-09T01:44:00;1.83;;;1.33;;
41643;SDS011;44236;48.098;11.582;2023-04-09T01:46:27;2.50;;;1.50;;
41643;SDS011;44236;48.098;11.582;2023-04-09T01:48:54;3.08;;;1.85;;
41643;SDS011;44236;48.098;11.582;2023-04-09T01:51:20;2.53;;;1.58;;
41643;SDS011;44236;48.098;11.582;2023-04-09T01:53:47;2.47;;;1.48;;
41643;SDS011;44236;48.098;11.582;2023-04-09T01:56:13;2.53;;;1.50;;
41643;SDS011;44236;48.098;11.582;2023-04-09T01:58:38;3.25;;;1.90;;
41643;SDS011;44236;48.098;11.582;2023-04-09T02:01:09;2.58;;;1.40;;
41643;SDS011;44236;48.098;11.582;2023-04-09T02:03:53;2.55;;;1.50;;
41643;SDS011;44236;48.098;11.582;2023-04-09T02:06:27;2.70;;;1.50;;
41643;SDS011;44236;48.098;11.582;2023-04-09T02:08:57;2.78;;;1.50;;
41643;SDS011;44236;48.098;11.582;2023-04-09T02:11:24;3.22;;;1.58;;
41643;SDS011;44236;48.098;11.582;2023-04-09T02:13:52;3.60;;;1.50;;
41643;SDS011;44236;48.098;11.582;2023-04-09T02:16:19;2.22;;;1.20;;
41643;SDS011;44236;48.098;11.582;2023-04-09T02:18:47;2.90;;;1.80;;
41643;SDS011;44236;48.098;11.582;2023-04-09T02:21:16;2.00;;;1.30;;
41643;SDS011;44236;48.098;11.582;2023-04-09T02:23:42;3.40;;;1.50;;
41643;SDS011;44236;48.098;11.582;2023-04-09T02:26:08;2.95;;;1.60;;
41643;SDS011;44236;48.098;11.582;2023-04-09T02:28:33;2.45;;;1.55;;
41643;SDS011;44236;48.098;11.582;2023-04-09T02:30:59;1.88;;;1.45;;
41643;SDS011;44236;48.098;11.582;2023-04-09T02:33:24;2.70;;;1.35;;
41643;SDS011;44236;48.098;11.582;2023-04-09T02:35:50;2.40;;;1.45;;
41643;SDS011;44236;48.098;11.582;2023-04-09T02:38:16;2.10;;;1.40;;
41643;SDS011;44236;48.098;11.582;2023-04-09T02:40:41;2.45;;;1.15;;
41643;SDS011;44236;48.098;11.582;2023-04-09T02:43:07;2.53;;;1.30;;
41643;SDS011;44236;48.098;11.582;2023-04-09T02:45:34;2.65;;;1.70;;
41643;SDS011;44236;48.098;11.582;2023-04-09T02:47:59;1.65;;;1.25;;
41643;SDS011;44236;48.098;11.582;2023-04-09T02:50:25;2.45;;;1.52;;
41643;SDS011;44236;48.098;11.582;2023-04-09T02:52:51;1.65;;;1.25;;
41643;SDS011;44236;48.098;11.582;2023-04-09T02:55:17;2.70;;;1.45;;
41643;SDS011;44236;48.098;11.582;2023-04-09T02:57:44;2.70;;;1.50;;
41643;SDS011;44236;48.098;11.582;2023-04-09T03:00:10;2.17;;;1.30;;
41643;SDS011;44236;48.098;11.582;2023-04-09T03:02:37;2.03;;;1.25;;
41643;SDS011;44236;48.098;11.582;2023-04-09T03:05:02;3.63;;;1.42;;
41643;SDS011;44236;48.098;11.582;2023-04-09T03:07:28;2.50;;;1.40;;
41643;SDS011;44236;48.098;11.582;2023-04-09T03:09:54;2.45;;;1.50;;
41643;SDS011;44236;48.098;11.582;2023-04-09T03:12:20;2.78;;;1.17;;
41643;SDS011;44236;48.098;11.582;2023-04-09T03:14:45;2.40;;;1.27;;
41643;SDS011;44236;48.098;11.582;2023-04-09T03:17:11;2.05;;;1.30;;
41643;SDS011;44236;48.098;11.582;2023-04-09T03:19:36;2.63;;;1.40;;
41643;SDS011;44236;48.098;11.582;2023-04-09T03:22:02;2.40;;;1.00;;
41643;SDS011;44236;48.098;11.582;2023-04-09T03:24:27;2.58;;;1.50;;
41643;SDS011;44236;48.098;11.582;2023-04-09T03:26:53;1.63;;;1.10;;
41643;SDS011;44236;48.098;11.582;2023-04-09T03:29:19;2.35;;;1.05;;
41643;SDS011;44236;48.098;11.582;2023-04-09T03:31:44;2.10;;;1.20;;
41643;SDS011;44236;48.098;11.582;2023-04-09T03:34:10;1.40;;;1.10;;
41643;SDS011;44236;48.098;11.582;2023-04-09T03:36:35;2.45;;;1.30;;
41643;SDS011;44236;48.098;11.582;2023-04-09T03:39:01;1.88;;;1.15;;
41643;SDS011;44236;48.098;11.582;2023-04-09T03:41:27;1.80;;;1.20;;
41643;SDS011;44236;48.098;11.582;2023-04-09T03:43:52;2.47;;;1.50;;
41643;SDS011;44236;48.098;11.582;2023-04-09T03:46:18;2.08;;;1.40;;
41643;SDS011;44236;48.098;11.582;2023-04-09T03:48:44;1.70;;;1.27;;
41643;SDS011;44236;48.098;11.582;2023-04-09T03:51:15;2.58;;;1.48;;
41643;SDS011;44236;48.098;11.582;2023-04-09T03:53:42;2.42;;;1.38;;
41643;SDS011;44236;48.098;11.582;2023-04-09T03:56:08;2.10;;;1.20;;
41643;SDS011;44236;48.098;11.582;2023-04-09T03:58:34;2.42;;;1.40;;
41643;SDS011;44236;48.098;11.582;2023-04-09T04:01:00;2.20;;;1.40;;
41643;SDS011;44236;48.098;11.582;2023-04-09T04:03:26;2.00;;;1.27;;
41643;SDS011;44236;48.098;11.582;2023-04-09T04:05:52;2.33;;;1.38;;
41643;SDS011;44236;48.098;11.582;2023-04-09T04:08:18;2.08;;;1.35;;
41643;SDS011;44236;48.098;11.582;2023-04-09T04:10:43;3.55;;;1.52;;
41643;SDS011;44236;48.098;11.582;2023-04-09T04:13:09;2.55;;;1.30;;
41643;SDS011;44236;48.098;11.582;2023-04-09T04:15:38;2.50;;;1.38;;
41643;SDS011;44236;48.098;11.582;2023-04-09T04:18:07;1.77;;;1.30;;
41643;SDS011;44236;48.098;11.582;2023-04-09T04:20:34;2.67;;;1.58;;
41643;SDS011;44236;48.098;11.582;2023-04-09T04:23:01;2.85;;;1.42;;
41643;SDS011;44236;48.098;11.582;2023-04-09T04:25:27;3.33;;;1.40;;
41643;SDS011;44236;48.098;11.582;2023-04-09T04:27:53;2.33;;;1.27;;
41643;SDS011;44236;48.098;11.582;2023-04-09T04:30:19;2.17;;;1.25;;
41643;SDS011;44236;48.098;11.582;2023-04-09T04:32:45;2.30;;;1.30;;
41643;SDS011;44236;48.098;11.582;2023-04-09T04:35:11;2.30;;;1.70;;
41643;SDS011;44236;48.098;11.582;2023-04-09T04:37:37;2.20;;;1.30;;
41643;SDS011;44236;48.098;11.582;2023-04-09T04:40:07;2.60;;;1.20;;
41643;SDS011;44236;48.098;11.582;2023-04-09T04:42:33;2.55;;;1.30;;
41643;SDS011;44236;48.098;11.582;2023-04-09T04:44:59;2.28;;;1.55;;
41643;SDS011;44236;48.098;11.582;2023-04-09T04:47:25;1.35;;;1.00;;
41643;SDS011;44236;48.098;11.582;2023-04-09T04:49:51;2.55;;;1.42;;
41643;SDS011;44236;48.098;11.582;2023-04-09T04:52:17;2.03;;;1.30;;
41643;SDS011;44236;48.098;11.582;2023-04-09T04:54:43;1.65;;;1.08;;
41643;SDS011;44236;48.098;11.582;2023-04-09T04:57:08;2.17;;;1.30;;
41643;SDS011;44236;48.098;11.582;2023-04-09T04:59:37;2.00;;;1.23;;
41643;SDS011;44236;48.098;11.582;2023-04-09T05:02:04;1.67;;;1.20;;
41643;SDS011;44236;48.098;11.582;2023-04-09T05:04:30;2.28;;;1.25;;
41643;SDS011;44236;48.098;11.582;2023-04-09T05:06:56;2.10;;;1.33;;
41643;SDS011;44236;48.098;11.582;2023-04-09T05:09:21;1.55;;;1.15;;
41643;SDS011;44236;48.098;11.582;2023-04-09T05:11:47;2.65;;;1.50;;
41643;SDS011;44236;48.098;11.582;2023-04-09T05:14:12;1.98;;;1.20;;
41643;SDS011;44236;48.098;11.582;2023-04-09T05:16:38;2.63;;;1.48;;
41643;SDS011;44236;48.098;11.582;2023-04-09T05:19:04;2.03;;;1.17;;
41643;SDS011;44236;48.098;11.582;2023-04-09T05:21:30;2.47;;;1.48;;
41643;SDS011;44236;48.098;11.582;2023-04-09T05:23:56;2.58;;;1.25;;
41643;SDS011;44236;48.098;11.582;2023-04-09T05:26:21;2.67;;;1.48;;
41643;SDS011;44236;48.098;11.582;2023-04-09T05:28:50;2.00;;;1.10;;
41643;SDS011;44236;48.098;11.582;2023-04-09T05:31:16;2.22;;;1.15;;
41643;SDS011;44236;48.098;11.582;2023-04-09T05:33:42;1.70;;;1.10;;
41643;SDS011;44236;48.098;11.582;2023-04-09T05:36:13;2.75;;;1.48;;
41643;SDS011;44236;48.098;11.582;2023-04-09T05:38:42;2.45;;;1.33;;
41643;SDS011;44236;48.098;11.582;2023-04-09T05:41:08;2.03;;;1.38;;
41643;SDS011;44236;48.098;11.582;2023-04-09T05:43:34;3.25;;;1.55;;
41643;SDS011;44236;48.098;11.582;2023-04-09T05:46:00;2.75;;;1.40;;
41643;SDS011;44236;48.098;11.582;2023-04-09T05:48:26;1.67;;;1.15;;
41643;SDS011;44236;48.098;11.582;2023-04-09T05:50:51;1.33;;;1.00;;
41643;SDS011;44236;48.098;11.582;2023-04-09T05:53:17;2.00;;;1.35;;
41643;SDS011;44236;48.098;11.582;2023-04-09T05:55:44;2.30;;;1.40;;
41643;SDS011;44236;48.098;11.582;2023-04-09T05:58:10;2.25;;;1.20;;
41643;SDS011;44236;48.098;11.582;2023-04-09T06:00:36;1.98;;;1.20;;
41643;SDS011;44236;48.098;11.582;2023-04-09T06:03:03;2.45;;;1.20;;
41643;SDS011;44236;48.098;11.582;2023-04-09T06:05:28;1.92;;;1.23;;
41643;SDS011;44236;48.098;11.582;2023-04-09T06:07:54;2.22;;;1.15;;
41643;SDS011;44236;48.098;11.582;2023-04-09T06:10:20;1.88;;;1.30;;
41643;SDS011;44236;48.098;11.582;2023-04-09T06:12:46;1.73;;;1.33;;
41643;SDS011;44236;48.098;11.582;2023-04-09T06:15:11;2.05;;;1.17;;
41643;SDS011;44236;48.098;11.582;2023-04-09T06:17:37;2.05;;;1.33;;
41643;SDS011;44236;48.098;11.582;2023-04-09T06:20:02;2.30;;;1.58;;
41643;SDS011;44236;48.098;11.582;2023-04-09T06:22:28;3.63;;;1.77;;
41643;SDS011;44236;48.098;11.582;2023-04-09T06:24:54;3.08;;;1.50;;
41643;SDS011;44236;48.098;11.582;2023-04-09T06:27:20;2.05;;;1.27;;
41643;SDS011;44236;48.098;11.582;2023-04-09T06:29:46;3.13;;;1.40;;
41643;SDS011;44236;48.098;11.582;2023-04-09T06:32:12;2.47;;;1.30;;
41643;SDS011;44236;48.098;11.582;2023-04-09T06:34:37;2.80;;;1.60;;
41643;SDS011;44236;48.098;11.582;2023-04-09T06:37:03;2.90;;;1.73;;
41643;SDS011;44236;48.098;11.582;2023-04-09T06:39:29;2.95;;;1.63;;
41643;SDS011;44236;48.098;11.582;2023-04-09T06:41:55;1.80;;;1.20;;
41643;SDS011;44236;48.098;11.582;2023-04-09T06:44:24;2.42;;;1.35;;
41643;SDS011;44236;48.098;11.582;2023-04-09T06:46:50;2.28;;;1.40;;
41643;SDS011;44236;48.098;11.582;2023-04-09T06:49:16;1.83;;;1.17;;
41643;SDS011;44236;48.098;11.582;2023-04-09T06:51:41;2.40;;;1.38;;
41643;SDS011;44236;48.098;11.582;2023-04-09T06:54:07;1.77;;;1.13;;
41643;SDS011;44236;48.098;11.582;2023-04-09T06:56:32;1.63;;;1.30;;
41643;SDS011;44236;48.098;11.582;2023-04-09T06:58:58;3.03;;;1.33;;
41643;SDS011;44236;48.098;11.582;2023-04-09T07:01:24;2.85;;;1.58;;
41643;SDS011;44236;48.098;11.582;2023-04-09T07:03:50;1.50;;;1.10;;
41643;SDS011;44236;48.098;11.582;2023-04-09T07:06:16;1.98;;;1.27;;
41643;SDS011;44236;48.098;11.582;2023-04-09T07:08:41;2.03;;;1.38;;
41643;SDS011;44236;48.098;11.582;2023-04-09T07:11:07;2.20;;;1.25;;
41643;SDS011;44236;48.098;11.582;2023-04-09T07:13:33;2.17;;;1.30;;
41643;SDS011;44236;48.098;11.582;2023-04-09T07:15:58;3.42;;;1.70;;
41643;SDS011;44236;48.098;11.582;2023-04-09T07:18:24;2.22;;;1.40;;
41643;SDS011;44236;48.098;11.582;2023-04-09T07:20:50;2.88;;;1.90;;
41643;SDS011;44236;48.098;11.582;2023-04-09T07:23:16;2.50;;;1.70;;
41643;SDS011;44236;48.098;11.582;2023-04-09T07:25:42;2.33;;;1.30;;
41643;SDS011;44236;48.098;11.582;2023-04-09T07:28:08;2.20;;;1.30;;
41643;SDS011;44236;48.098;11.582;2023-04-09T07:30:33;2.70;;;1.80;;
41643;SDS011;44236;48.098;11.582;2023-04-09T07:32:59;2.85;;;1.35;;
41643;SDS011;44236;48.098;11.582;2023-04-09T07:35:25;2.80;;;1.50;;
41643;SDS011;44236;48.098;11.582;2023-04-09T07:37:50;3.55;;;1.70;;
41643;SDS011;44236;48.098;11.582;2023-04-09T07:40:16;2.20;;;1.38;;
41643;SDS011;44236;48.098;11.582;2023-04-09T07:42:41;2.42;;;1.35;;
41643;SDS011;44236;48.098;11.582;2023-04-09T07:45:07;2.60;;;1.50;;
41643;SDS011;44236;48.098;11.582;2023-04-09T07:47:33;2.63;;;1.52;;
41643;SDS011;44236;48.098;11.582;2023-04-09T07:49:59;2.20;;;1.30;;
41643;SDS011;44236;48.098;11.582;2023-04-09T07:52:24;3.25;;;1.67;;
41643;SDS011;44236;48.098;11.582;2023-04-09T07:54:50;2.72;;;1.70;;
41643;SDS011;44236;48.098;11.582;2023-04-09T07:57:15;3.22;;;1.70;;
41643;SDS011;44236;48.098;11.582;2023-04-09T07:59:41;2.95;;;1.77;;
41643;SDS011;44236;48.098;11.582;2023-04-09T08:02:07;3.85;;;1.80;;
41643;SDS011;44236;48.098;11.582;2023-04-09T08:04:32;3.03;;;1.40;;
41643;SDS011;44236;48.098;11.582;2023-04-09T08:06:58;2.80;;;1.65;;
41643;SDS011;44236;48.098;11.582;2023-04-09T08:09:24;3.13;;;1.98;;
41643;SDS011;44236;48.098;11.582;2023-04-09T08:11:49;2.65;;;1.65;;
41643;SDS011;44236;48.098;11.582;2023-04-09T08:14:15;3.10;;;1.70;;
41643;SDS011;44236;48.098;11.582;2023-04-09T08:16:42;2.60;;;1.40;;
41643;SDS011;44236;48.098;11.582;2023-04-09T08:19:10;2.53;;;1.40;;
41643;SDS011;44236;48.098;11.582;2023-04-09T08:21:36;2.50;;;1.55;;
41643;SDS011;44236;48.098;11.582;2023-04-09T08:24:03;2.58;;;1.70;;
41643;SDS011;44236;48.098;11.582;2023-04-09T08:26:30;3.67;;;1.90;;
41643;SDS011;44236;48.098;11.582;2023-04-09T08:28:56;2.80;;;1.80;;
41643;SDS011;44236;48.098;11.582;2023-04-09T08:31:21;2.47;;;1.40;;
41643;SDS011;44236;48.098;11.582;2023-04-09T08:33:47;2.60;;;1.48;;
41643;SDS011;44236;48.098;11.582;2023-04-09T08:36:13;2.90;;;1.73;;
41643;SDS011;44236;48.098;11.582;2023-04-09T08:38:38;2.35;;;1.50;;
41643;SDS011;44236;48.098;11.582;2023-04-09T08:41:04;2.25;;;1.58;;
41643;SDS011;44236;48.098;11.582;2023-04-09T08:43:31;2.80;;;1.65;;
41643;SDS011;44236;48.098;11.582;2023-04-09T08:45:59;2.00;;;1.38;;
41643;SDS011;44236;48.098;11.582;2023-04-09T08:48:27;3.10;;;1.83;;
41643;SDS011;44236;48.098;11.582;2023-04-09T08:50:53;2.78;;;1.48;;
41643;SDS011;44236;48.098;11.582;2023-04-09T08:53:19;2.42;;;1.60;;
41643;SDS011;44236;48.098;11.582;2023-04-09T08:55:46;2.83;;;1.75;;
41643;SDS011;44236;48.098;11.582;2023-04-09T08:58:12;4.25;;;2.10;;
41643;SDS011;44236;48.098;11.582;2023-04-09T09:00:38;3.13;;;1.60;;
41643;SDS011;44236;48.098;11.582;2023-04-09T09:03:09;3.92;;;1.70;;
41643;SDS011;44236;48.098;11.582;2023-04-09T09:05:40;3.22;;;1.83;;
41643;SDS011;44236;48.098;11.582;2023-04-09T09:08:08;2.95;;;1.52;;
41643;SDS011;44236;48.098;11.582;2023-04-09T09:10:42;3.83;;;1.80;;
41643;SDS011;44236;48.098;11.582;2023-04-09T09:13:16;3.83;;;2.00;;
41643;SDS011;44236;48.098;11.582;2023-04-09T09:15:42;2.95;;;1.92;;
41643;SDS011;44236;48.098;11.582;2023-04-09T09:18:10;3.88;;;2.25;;
41643;SDS011;44236;48.098;11.582;2023-04-09T09:20:35;1.85;;;1.40;;
41643;SDS011;44236;48.098;11.582;2023-04-09T09:23:02;3.05;;;1.85;;
41643;SDS011;44236;48.098;11.582;2023-04-09T09:25:27;2.97;;;1.90;;
41643;SDS011;44236;48.098;11.582;2023-04-09T09:27:54;3.70;;;2.17;;
41643;SDS011;44236;48.098;11.582;2023-04-09T09:30:32;3.97;;;2.50;;
41643;SDS011;44236;48.098;11.582;2023-04-09T09:33:06;4.63;;;1.95;;
41643;SDS011;44236;48.098;11.582;2023-04-09T09:38:15;4.55;;;2.20;;
41643;SDS011;44236;48.098;11.582;2023-04-09T09:40:42;3.40;;;2.00;;
41643;SDS011;44236;48.098;11.582;2023-04-09T09:43:08;4.75;;;1.70;;
41643;SDS011;44236;48.098;11.582;2023-04-09T09:45:35;5.97;;;2.50;;
41643;SDS011;44236;48.098;11.582;2023-04-09T09:48:01;3.92;;;2.30;;
41643;SDS011;44236;48.098;11.582;2023-04-09T09:50:28;5.20;;;2.25;;
41643;SDS011;44236;48.098;11.582;2023-04-09T09:53:01;3.78;;;2.10;;
41643;SDS011;44236;48.098;11.582;2023-04-09T09:55:32;4.38;;;2.42;;
41643;SDS011;44236;48.098;11.582;2023-04-09T09:58:02;3.58;;;2.22;;
41643;SDS011;44236;48.098;11.582;2023-04-09T10:00:46;3.75;;;1.85;;
41643;SDS011;44236;48.098;11.582;2023-04-09T10:05:40;3.38;;;2.22;;
41643;SDS011;44236;48.098;11.582;2023-04-09T10:08:06;3.50;;;2.20;;
41643;SDS011;44236;48.098;11.582;2023-04-09T10:10:33;3.83;;;2.35;;
41643;SDS011;44236;48.098;11.582;2023-04-09T10:13:00;6.47;;;2.65;;
41643;SDS011;44236;48.098;11.582;2023-04-09T10:15:27;4.13;;;2.40;;
41643;SDS011;44236;48.098;11.582;2023-04-09T10:17:54;3.83;;;2.50;;
41643;SDS011;44236;48.098;11.582;2023-04-09T10:20:28;4.85;;;2.63;;
41643;SDS011;44236;48.098;11.582;2023-04-09T10:23:02;3.50;;;2.10;;
41643;SDS011;44236;48.098;11.582;2023-04-09T10:25:33;4.00;;;2.30;;
41643;SDS011;44236;48.098;11.582;2023-04-09T10:27:59;4.85;;;2.65;;
41643;SDS011;44236;48.098;11.582;2023-04-09T10:30:35;4.35;;;2.55;;
41643;SDS011;44236;48.098;11.582;2023-04-09T10:33:14;3.85;;;2.35;;
41643;SDS011;44236;48.098;11.582;2023-04-09T10:35:42;3.55;;;2.33;;
41643;SDS011;44236;48.098;11.582;2023-04-09T10:38:12;4.00;;;2.10;;
41643;SDS011;44236;48.098;11.582;2023-04-09T10:40:48;3.13;;;1.98;;
41643;SDS011;44236;48.098;11.582;2023-04-09T10:43:17;3.80;;;2.25;;
41643;SDS011;44236;48.098;11.582;2023-04-09T10:45:44;3.83;;;2.35;;
41643;SDS011;44236;48.098;11.582;2023-04-09T10:48:12;4.20;;;2.33;;
41643;SDS011;44236;48.098;11.582;2023-04-09T10:50:38;4.00;;;2.67;;
41643;SDS011;44236;48.098;11.582;2023-04-09T10:53:12;4.85;;;2.78;;
41643;SDS011;44236;48.098;11.582;2023-04-09T10:55:49;4.40;;;2.75;;
41643;SDS011;44236;48.098;11.582;2023-04-09T10:58:16;4.32;;;2.60;;
41643;SDS011;44236;48.098;11.582;2023-04-09T11:00:43;3.92;;;2.17;;
41643;SDS011;44236;48.098;11.582;2023-04-09T11:06:10;4.53;;;2.20;;
41643;SDS011;44236;48.098;11.582;2023-04-09T11:08:42;3.75;;;2.47;;
41643;SDS011;44236;48.098;11.582;2023-04-09T11:11:08;4.05;;;2.60;;
41643;SDS011;44236;48.098;11.582;2023-04-09T11:13:35;3.35;;;2.20;;
41643;SDS011;44236;48.098;11.582;2023-04-09T11:16:01;5.32;;;3.13;;
41643;SDS011;44236;48.098;11.582;2023-04-09T11:18:30;4.55;;;2.60;;
41643;SDS011;44236;48.098;11.582;2023-04-09T11:20:59;4.28;;;3.03;;
41643;SDS011;44236;48.098;11.582;2023-04-09T11:23:26;4.15;;;2.58;;
41643;SDS011;44236;48.098;11.582;2023-04-09T11:25:52;3.85;;;2.33;;
41643;SDS011;44236;48.098;11.582;2023-04-09T11:28:19;5.50;;;3.40;;
41643;SDS011;44236;48.098;11.582;2023-04-09T11:30:45;6.28;;;2.78;;
41643;SDS011;44236;48.098;11.582;2023-04-09T11:33:11;4.07;;;2.58;;
41643;SDS011;44236;48.098;11.582;2023-04-09T11:35:37;4.30;;;2.72;;
41643;SDS011;44236;48.098;11.582;2023-04-09T11:38:06;6.60;;;3.33;;
41643;SDS011;44236;48.098;11.582;2023-04-09T11:40:36;4.20;;;2.78;;
41643;SDS011;44236;48.098;11.582;2023-04-09T11:43:11;4.78;;;3.00;;
41643;SDS011;44236;48.098;11.582;2023-04-09T11:45:38;4.40;;;2.50;;
41643;SDS011;44236;48.098;11.582;2023-04-09T11:48:04;3.97;;;2.40;;
41643;SDS011;44236;48.098;11.582;2023-04-09T11:50:31;4.35;;;2.72;;
41643;SDS011;44236;48.098;11.582;2023-04-09T11:52:56;4.97;;;2.83;;
41643;SDS011;44236;48.098;11.582;2023-04-09T11:55:26;6.60;;;3.42;;
41643;SDS011;44236;48.098;11.582;2023-04-09T11:57:56;5.00;;;3.17;;
41643;SDS011;44236;48.098;11.582;2023-04-09T12:00:26;5.18;;;3.20;;
41643;SDS011;44236;48.098;11.582;2023-04-09T12:03:02;5.60;;;3.33;;
41643;SDS011;44236;48.098;11.582;2023-04-09T12:05:33;4.47;;;2.90;;
41643;SDS011;44236;48.098;11.582;2023-04-09T12:08:00;3.63;;;2.50;;
41643;SDS011;44236;48.098;11.582;2023-04-09T12:10:34;5.30;;;3.17;;
41643;SDS011;44236;48.098;11.582;2023-04-09T12:15:30;4.10;;;2.83;;
41643;SDS011;44236;48.098;11.582;2023-04-09T12:18:01;5.73;;;2.40;;
41643;SDS011;44236;48.098;11.582;2023-04-09T12:20:31;4.07;;;2.53;;
41643;SDS011;44236;48.098;11.582;2023-04-09T12:23:04;4.65;;;3.20;;
41643;SDS011;44236;48.098;11.582;2023-04-09T12:25:32;5.05;;;3.10;;
41643;SDS011;44236;48.098;11.582;2023-04-09T12:28:00;4.28;;;2.88;;
41643;SDS011;44236;48.098;11.582;2023-04-09T12:30:27;4.30;;;2.80;;
41643;SDS011;44236;48.098;11.582;2023-04-09T12:32:53;4.97;;;2.90;;
41643;SDS011;44236;48.098;11.582;2023-04-09T12:35:20;12.52;;;3.92;;
41643;SDS011;44236;48.098;11.582;2023-04-09T12:37:46;4.65;;;2.90;;
41643;SDS011;44236;48.098;11.582;2023-04-09T12:40:13;4.88;;;3.15;;
41643;SDS011;44236;48.098;11.582;2023-04-09T12:42:39;4.25;;;2.97;;
41643;SDS011;44236;48.098;11.582;2023-04-09T12:45:10;5.00;;;2.72;;
41643;SDS011;44236;48.098;11.582;2023-04-09T12:47:37;4.88;;;2.90;;
41643;SDS011;44236;48.098;11.582;2023-04-09T12:50:06;4.55;;;2.60;;
41643;SDS011;44236;48.098;11.582;2023-04-09T12:52:33;4.95;;;3.28;;
41643;SDS011;44236;48.098;11.582;2023-04-09T12:54:58;4.57;;;2.83;;
41643;SDS011;44236;48.098;11.582;2023-04-09T12:57:25;5.80;;;3.75;;
41643;SDS011;44236;48.098;11.582;2023-04-09T12:59:51;4.22;;;2.83;;
41643;SDS011;44236;48.098;11.582;2023-04-09T13:02:16;5.00;;;3.53;;
41643;SDS011;44236;48.098;11.582;2023-04-09T13:04:43;5.03;;;3.10;;
41643;SDS011;44236;48.098;11.582;2023-04-09T13:07:08;5.53;;;3.60;;
41643;SDS011;44236;48.098;11.582;2023-04-09T13:09:36;5.07;;;3.30;;
41643;SDS011;44236;48.098;11.582;2023-04-09T13:12:01;4.97;;;3.35;;
41643;SDS011;44236;48.098;11.582;2023-04-09T13:14:27;7.32;;;3.50;;
41643;SDS011;44236;48.098;11.582;2023-04-09T13:16:53;5.50;;;3.60;;
41643;SDS011;44236;48.098;11.582;2023-04-09T13:19:18;4.57;;;2.83;;
41643;SDS011;44236;48.098;11.582;2023-04-09T13:21:44;7.13;;;3.33;;
41643;SDS011;44236;48.098;11.582;2023-04-09T13:24:10;5.10;;;3.22;;
41643;SDS011;44236;48.098;11.582;2023-04-09T13:26:36;5.32;;;3.63;;
41643;SDS011;44236;48.098;11.582;2023-04-09T13:29:01;5.18;;;3.83;;
41643;SDS011;44236;48.098;11.582;2023-04-09T13:31:28;5.53;;;3.78;;
41643;SDS011;44236;48.098;11.582;2023-04-09T13:33:54;4.45;;;3.22;;
41643;SDS011;44236;48.098;11.582;2023-04-09T13:36:20;6.05;;;3.05;;
41643;SDS011;44236;48.098;11.582;2023-04-09T13:38:45;5.50;;;3.42;;
41643;SDS011;44236;48.098;11.582;2023-04-09T13:41:12;4.80;;;3.05;;
41643;SDS011;44236;48.098;11.582;2023-04-09T13:43:39;5.80;;;3.70;;
41643;SDS011;44236;48.098;11.582;2023-04-09T13:46:04;5.68;;;3.67;;
41643;SDS011;44236;48.098;11.582;2023-04-09T13:48:30;5.05;;;3.25;;
41643;SDS011;44236;48.098;11.582;2023-04-09T13:50:56;5.22;;;3.05;;
41643;SDS011;44236;48.098;11.582;2023-04-09T13:53:22;4.93;;;3.25;;
41643;SDS011;44236;48.098;11.582;2023-04-09T13:55:49;5.03;;;3.47;;
41643;SDS011;44236;48.098;11.582;2023-04-09T13:58:15;5.63;;;3.45;;
41643;SDS011;44236;48.098;11.582;2023-04-09T14:00:40;5.05;;;3.60;;
41643;SDS011;44236;48.098;11.582;2023-04-09T14:03:07;5.13;;;3.15;;
41643;SDS011;44236;48.098;11.582;2023-04-09T14:05:33;6.15;;;3.85;;
41643;SDS011;44236;48.098;11.582;2023-04-09T14:07:58;6.35;;;3.88;;
41643;SDS011;44236;48.098;11.582;2023-04-09T14:10:24;5.07;;;3.38;;
41643;SDS011;44236;48.098;11.582;2023-04-09T14:12:51;5.00;;;3.47;;
41643;SDS011;44236;48.098;11.582;2023-04-09T14:15:17;5.55;;;3.20;;
41643;SDS011;44236;48.098;11.582;2023-04-09T14:17:42;5.18;;;3.65;;
41643;SDS011;44236;48.098;11.582;2023-04-09T14:20:08;5.75;;;3.88;;
41643;SDS011;44236;48.098;11.582;2023-04-09T14:22:34;5.20;;;3.13;;
41643;SDS011;44236;48.098;11.582;2023-04-09T14:25:00;4.85;;;3.20;;
41643;SDS011;44236;48.098;11.582;2023-04-09T14:27:25;5.22;;;3.58;;
41643;SDS011;44236;48.098;11.582;2023-04-09T14:29:51;5.78;;;3.58;;
41643;SDS011;44236;48.098;11.582;2023-04-09T14:32:17;5.75;;;3.40;;
41643;SDS011;44236;48.098;11.582;2023-04-09T14:34:43;5.35;;;3.45;;
41643;SDS011;44236;48.098;11.582;2023-04-09T14:37:09;5.03;;;3.28;;
41643;SDS011;44236;48.098;11.582;2023-04-09T14:39:34;5.57;;;3.47;;
41643;SDS011;44236;48.098;11.582;2023-04-09T14:42:00;4.05;;;2.63;;
41643;SDS011;44236;48.098;11.582;2023-04-09T14:44:26;4.93;;;3.50;;
41643;SDS011;44236;48.098;11.582;2023-04-09T14:46:52;5.10;;;3.70;;
41643;SDS011;44236;48.098;11.582;2023-04-09T14:49:21;5.30;;;3.33;;
41643;SDS011;44236;48.098;11.582;2023-04-09T14:51:47;4.50;;;3.13;;